Lake Oke Center current weather conditions

sailwx.info

Wind from 255 at 1 knots gusting 2

Air temperature 20.2° C
Dewpoint 16.4° C
Water temperature -7999.0° C

Last reported at 2019-Nov-19 16:45 UTC.
Time now 2019-Nov-19 18:06 UTC

Location: N 26°54' W 080°47'.
View on Google Maps.

See reports from other nearby stations

  
Tides and Currents Weather Stations Pressure Air Temp Water Temp Dewpoint Dewpoint Depression Visibility Wind Speed Wind Dir Waves Ship Positions
date/time (UTC)wind fromknots sea level pressurealtimeterstation pressurevisibilityair tempwater tempwave heightnotes
2019-Nov-19 16:45 255 1 gusting 2 20.2-7999.0
2019-Nov-19 16:30 315 2 gusting 4 20.2-7999.0
2019-Nov-19 16:15 309 0 gusting 1 21.0-7999.0
2019-Nov-19 16:00 303 0 gusting 1 20.8-7999.0
2019-Nov-19 15:45 233 0 gusting 1 20.8-7999.0
2019-Nov-19 15:30 177 0 gusting 2 20.1-7999.0
2019-Nov-19 15:15 200 2 gusting 3 19.5-7999.0
2019-Nov-19 15:00 189 3 gusting 5 19.2-7999.0
2019-Nov-19 14:45 199 3 gusting 5 19.3-7999.0
2019-Nov-19 14:30 196 3 gusting 4 19.0-7999.0
2019-Nov-19 14:15 200 4 gusting 5 19.1-7999.0
2019-Nov-19 14:00 210 3 gusting 4 18.9-7999.0
2019-Nov-19 13:45 207 3 gusting 5 19.3-7999.0
2019-Nov-19 13:30 204 3 gusting 4 19.4-7999.0
2019-Nov-19 13:15 185 2 gusting 3 19.5-7999.0
2019-Nov-19 13:00 169 1 gusting 3 19.6-7999.0
2019-Nov-19 12:45 137 0 gusting 2 19.3-7999.0
2019-Nov-19 12:30 039 0 gusting 1 18.7-7999.0
2019-Nov-19 12:15 172 0 gusting 1 18.2-7999.0
2019-Nov-19 12:00 196 2 gusting 2 18.0-7999.0
2019-Nov-19 11:45 211 2 gusting 3 18.0-7999.0
2019-Nov-19 11:30 212 2 gusting 3 17.9-7999.0
2019-Nov-19 11:15 214 3 gusting 5 18.2-7999.0
2019-Nov-19 11:00 212 4 gusting 5 18.4-7999.0
2019-Nov-19 10:45 210 3 gusting 4 18.4-7999.0
2019-Nov-19 10:30 224 2 gusting 3 18.5-7999.0
2019-Nov-19 10:15 223 2 gusting 3 18.6-7999.0
2019-Nov-19 09:45 295 0 gusting 2 18.5-7999.0
2019-Nov-19 09:30 315 1 gusting 3 18.5-7999.0
2019-Nov-19 09:15 338 3 gusting 4 18.5-7999.0
2019-Nov-19 08:45 313 4 gusting 5 18.4-7999.0
2019-Nov-19 08:30 302 4 gusting 5 18.3-7999.0
2019-Nov-19 08:15 275 3 gusting 4 18.3-7999.0
2019-Nov-19 07:45 280 1 gusting 2 18.6-7999.0
2019-Nov-19 07:30 300 2 gusting 3 18.7-7999.0
2019-Nov-19 07:15 295 3 gusting 5 18.8-7999.0
2019-Nov-19 06:45 320 5 gusting 6 18.9-7999.0
2019-Nov-19 06:30 324 5 gusting 6 19.0-7999.0
2019-Nov-19 06:15 333 4 gusting 5 19.0-7999.0
2019-Nov-19 05:45 320 3 gusting 5 19.0-7999.0
2019-Nov-19 05:30 296 4 gusting 5 19.1-7999.0
2019-Nov-19 05:15 307 4 gusting 5 18.9-7999.0
2019-Nov-19 04:45 300 6 gusting 7 18.7-7999.0
2019-Nov-19 04:30 296 7 gusting 8 18.8-7999.0
2019-Nov-19 04:15 293 8 gusting 9 19.1-7999.0
2019-Nov-19 03:45 291 6 gusting 7 19.4-7999.0
2019-Nov-19 03:30 293 8 gusting 9 19.6-7999.0
2019-Nov-19 03:15 291 7 gusting 8 19.8-7999.0
2019-Nov-19 03:00 298 8 gusting 9 19.9-7999.0
2019-Nov-19 02:45 298 9 gusting 11 20.0-7999.0
2019-Nov-19 02:30 296 10 gusting 11 20.1-7999.0
2019-Nov-19 02:15 296 8 gusting 10 20.0-7999.0
2019-Nov-19 02:00 293 8 gusting 9 20.2-7999.0
2019-Nov-19 01:45 299 7 gusting 8 20.3-7999.0
2019-Nov-19 01:30 299 7 gusting 8 20.5-7999.0
2019-Nov-19 01:15 301 7 gusting 8 20.5-7999.0
2019-Nov-19 01:00 296 6 gusting 7 20.6-7999.0
2019-Nov-19 00:45 288 5 gusting 7 20.5-7999.0
2019-Nov-19 00:30 296 5 gusting 6 20.6-7999.0
2019-Nov-19 00:15 307 5 gusting 6 20.8-7999.0
2019-Nov-19 00:00 315 4 gusting 5 20.8-7999.0
2019-Nov-18 23:45 318 5 gusting 6 20.9-7999.0
2019-Nov-18 23:30 319 5 gusting 6 20.8-7999.0
2019-Nov-18 23:15 322 8 gusting 9 21.0-7999.0
2019-Nov-18 23:00 324 7 gusting 10 21.1-7999.0
2019-Nov-18 22:45 323 5 gusting 9 21.2-7999.0
2019-Nov-18 22:30 327 4 gusting 6 21.2-7999.0
2019-Nov-18 22:15 326 4 gusting 5 21.4-7999.0
2019-Nov-18 22:00 321 5 gusting 9 21.7-7999.0
2019-Nov-18 21:45 319 6 gusting 7 21.8-7999.0
2019-Nov-18 21:30 318 8 gusting 12 21.8-7999.0
2019-Nov-18 21:15 088 2 gusting 3 21.5-7999.0
2019-Nov-18 21:00 185 1 gusting 2 21.3-7999.0
2019-Nov-18 20:45 062 2 gusting 3 21.2-7999.0
2019-Nov-18 20:30 054 2 gusting 3 20.9-7999.0
2019-Nov-18 20:15 122 1 gusting 3 20.7-7999.0
2019-Nov-18 20:00 053 1 gusting 2 20.6-7999.0
2019-Nov-18 19:45 074 0 gusting 2 21.1-7999.0
2019-Nov-18 19:30 160 0 gusting 0 20.7-7999.0
2019-Nov-18 19:15 202 1 gusting 2 19.7-7999.0
2019-Nov-18 19:00 214 2 gusting 3 19.1-7999.0
2019-Nov-18 18:45 208 3 gusting 4 18.4-7999.0
2019-Nov-18 18:30 181 3 gusting 4 18.0-7999.0
2019-Nov-18 18:15 184 3 gusting 4 17.7-7999.0
2019-Nov-18 18:00 212 3 gusting 4 17.4-7999.0
2019-Nov-18 17:45 242 3 gusting 4 16.9-7999.0
2019-Nov-18 17:30 264 4 gusting 5 16.3-7999.0
2019-Nov-18 17:15 285 5 gusting 7 15.9-7999.0
2019-Nov-18 17:00 289 5 gusting 7 15.5-7999.0
2019-Nov-18 16:45 279 4 gusting 6 15.1-7999.0
2019-Nov-18 16:30 272 4 gusting 5 14.8-7999.0
2019-Nov-18 16:15 275 5 gusting 7 14.8-7999.0
2019-Nov-18 15:45 286 5 gusting 9 13.8-7999.0
2019-Nov-18 15:30 278 6 gusting 8 13.8-7999.0
2019-Nov-18 15:15 292 7 gusting 9 13.7-7999.0
2019-Nov-18 15:00 302 7 gusting 9 13.7-7999.0
2019-Nov-18 14:45 310 4 gusting 6 13.4-7999.0
2019-Nov-18 14:30 298 4 gusting 6 13.3-7999.0
2019-Nov-18 14:15 316 4 gusting 6 13.2-7999.0
2019-Nov-18 14:00 327 3 gusting 7 13.1-7999.0
2019-Nov-18 13:45 325 7 gusting 9 13.2-7999.0
2019-Nov-18 13:30 333 5 gusting 8 13.1-7999.0
2019-Nov-18 13:15 293 6 gusting 8 13.1-7999.0
2019-Nov-18 13:00 218 5 gusting 7 13.1-7999.0
2019-Nov-18 12:45 285 5 gusting 8 13.1-7999.0
2019-Nov-18 12:30 315 5 gusting 7 13.1-7999.0
2019-Nov-18 12:15 327 8 gusting 12 13.1-7999.0
2019-Nov-18 12:00 323 9 gusting 11 13.2-7999.0
2019-Nov-18 11:45 315 7 gusting 11 13.2-7999.0
2019-Nov-18 11:30 312 6 gusting 8 13.2-7999.0
2019-Nov-18 11:15 323 8 gusting 9 13.2-7999.0
2019-Nov-18 11:00 317 8 gusting 11 13.4-7999.0
2019-Nov-18 10:45 314 8 gusting 12 13.4-7999.0
2019-Nov-18 10:30 299 8 gusting 11 13.3-7999.0
2019-Nov-18 10:15 298 8 gusting 11 13.4-7999.0
2019-Nov-18 10:00 289 9 gusting 11 13.6-7999.0
2019-Nov-18 09:45 303 10 gusting 13 13.5-7999.0
2019-Nov-18 09:30 303 10 gusting 13 13.8-7999.0
2019-Nov-18 09:15 314 10 gusting 13 13.7-7999.0
2019-Nov-18 09:00 302 8 gusting 11 13.5-7999.0
2019-Nov-18 08:45 304 8 gusting 11 13.5-7999.0
2019-Nov-18 08:30 302 8 gusting 9 13.5-7999.0
2019-Nov-18 08:15 313 8 gusting 10 13.4-7999.0
2019-Nov-18 08:00 316 9 gusting 10 13.4-7999.0
2019-Nov-18 07:45 319 9 gusting 10 13.4-7999.0
2019-Nov-18 07:30 321 9 gusting 11 13.4-7999.0
2019-Nov-18 07:15 317 9 gusting 10 13.5-7999.0
2019-Nov-18 07:00 324 10 gusting 12 13.7-7999.0
2019-Nov-18 06:45 328 9 gusting 12 13.9-7999.0
2019-Nov-18 06:30 334 8 gusting 11 14.1-7999.0
2019-Nov-18 06:15 321 8 gusting 11 14.0-7999.0
2019-Nov-18 06:00 331 8 gusting 10 13.9-7999.0
2019-Nov-18 05:45 333 9 gusting 12 14.0-7999.0
2019-Nov-18 05:30 329 9 gusting 12 13.8-7999.0
2019-Nov-18 05:15 334 10 gusting 12 13.9-7999.0
2019-Nov-18 04:45 325 11 gusting 14 14.3-7999.0
2019-Nov-18 04:30 324 9 gusting 12 14.4-7999.0
2019-Nov-18 04:15 328 7 gusting 9 14.5-7999.0
2019-Nov-18 03:45 310 6 gusting 9 14.4-7999.0
2019-Nov-18 03:30 323 6 gusting 9 14.5-7999.0
2019-Nov-18 03:15 301 6 gusting 8 14.4-7999.0
2019-Nov-18 02:45 326 8 gusting 11 14.3-7999.0
2019-Nov-18 02:30 322 9 gusting 11 14.2-7999.0
2019-Nov-18 02:15 282 9 gusting 12 14.3-7999.0
2019-Nov-18 01:45 270 7 gusting 10 14.3-7999.0
2019-Nov-18 01:30 295 8 gusting 11 14.3-7999.0
2019-Nov-18 01:15 291 8 gusting 12 14.3-7999.0
2019-Nov-18 00:45 138 9 gusting 12 14.7-7999.0
2019-Nov-18 00:30 161 9 gusting 13 14.7-7999.0
2019-Nov-18 00:15 194 9 gusting 12 14.9-7999.0
2019-Nov-17 23:45 061 9 gusting 13 15.2-7999.0
2019-Nov-17 23:30 102 13 gusting 16 15.3-7999.0
2019-Nov-17 23:15 266 12 gusting 16 15.7-7999.0
2019-Nov-17 22:45 317 11 gusting 15 15.9-7999.0
2019-Nov-17 22:30 312 11 gusting 15 15.8-7999.0
2019-Nov-17 22:15 245 12 gusting 16 16.0-7999.0
2019-Nov-17 21:45 236 11 gusting 15 16.1-7999.0
2019-Nov-17 21:30 340 11 gusting 14 16.2-7999.0
2019-Nov-17 21:15 331 12 gusting 15 16.2-7999.0
2019-Nov-17 21:00 331 11 gusting 14 16.2-7999.0
2019-Nov-17 20:45 336 11 gusting 14 16.1-7999.0
2019-Nov-17 20:30 329 10 gusting 14 16.1-7999.0
2019-Nov-17 20:15 323 11 gusting 13 15.9-7999.0
2019-Nov-17 20:00 335 10 gusting 13 16.0-7999.0
2019-Nov-17 19:45 330 10 gusting 13 15.8-7999.0
2019-Nov-17 19:30 334 10 gusting 14 15.7-7999.0
2019-Nov-17 19:15 330 10 gusting 14 15.6-7999.0
2019-Nov-17 19:00 314 11 gusting 15 15.6-7999.0
2019-Nov-17 18:45 314 11 gusting 14 15.6-7999.0
2019-Nov-17 18:30 308 10 gusting 14 15.6-7999.0
2019-Nov-17 18:15 320 11 gusting 14 15.5-7999.0
2019-Nov-17 18:00 336 11 gusting 14 15.4-7999.0